Terminal Aerodrome Forecast
Issued by NWS

Home | Current Version | Previous Version | Text Only | Print | Product List | Glossary On
Versions: 1 2 3 4 5 6 7 8 9 10 11 12 13 14 15 16 17 18 19 20 21 22 23 24 25 26 27 28 29 30 31 32 33 34 35 36 37 38 39 40 41 42 43 44
000
FTUS42 KGSP 290826 AAA
TAFHKY
TAF AMD
KHKY 290826Z 2908/3006 35003KT 1SM BR OVC003
      TEMPO 2909/2912 3SM BR OVC002
     FM291400 33003KT P6SM BKN045
     FM291800 17006KT P6SM BKN070 PROB30 2918/2920 4SM TSRA BKN040CB
     FM292300 17004KT P6SM BKN045=

USA.gov is the U.S. government's official web portal to all federal, state and local government web resources and services.